Time;durP1;ratioP1;P1;durP2;ratioP2;P2;SDS_P1;SDS_P2;PMS_P1;PMS_P2;Temp;Humidity;BMP_temperature;BMP_pressure;BME280_temperature;BME280_humidity;BME280_pressure;Samples;Min_cycle;Max_cycle;Signal;HPM_P1;HPM_P2
2022/10/10 00:00:05;;;;;;;0.43;0.43;;;;;;;12.29;54.71;100989.28;5179249;28;20041;-79
2022/10/10 00:02:35;;;;;;;0.85;0.85;;;;;;;12.27;54.97;100991.94;5140129;28;20022;-79
2022/10/10 00:05:10;;;;;;;0.55;0.55;;;;;;;12.24;55.17;100992.03;5176395;28;20232;-79
2022/10/10 00:07:40;;;;;;;16.48;1.17;;;;;;;12.26;55.13;100984.97;5176100;28;20433;-79
2022/10/10 00:10:11;;;;;;;0.65;0.63;;;;;;;12.22;55.35;100988.59;5162048;28;20038;-78
2022/10/10 00:12:42;;;;;;;0.77;0.77;;;;;;;12.17;54.96;100989.63;5177624;28;20065;-78
2022/10/10 00:15:13;;;;;;;0.50;0.50;;;;;;;12.11;55.09;100985.41;5155390;28;20048;-78
2022/10/10 00:17:44;;;;;;;0.30;0.30;;;;;;;12.10;54.89;100991.59;5167018;28;20026;-78
2022/10/10 00:20:17;;;;;;;0.30;0.30;;;;;;;12.06;55.03;100987.31;5177815;28;20047;-79
2022/10/10 00:22:47;;;;;;;0.30;0.30;;;;;;;12.06;54.91;100985.56;5195393;28;20049;-77
2022/10/10 00:25:22;;;;;;;0.80;0.80;;;;;;;12.02;54.87;100990.94;5138654;28;20560;-79
2022/10/10 00:27:53;;;;;;;0.40;0.40;;;;;;;11.95;54.98;100985.81;5177026;28;20034;-79
2022/10/10 00:30:23;;;;;;;0.40;0.40;;;;;;;11.94;55.21;100989.34;5169290;28;20030;-80
2022/10/10 00:32:54;;;;;;;0.40;0.40;;;;;;;11.92;54.51;100985.91;5184560;28;20040;-78
2022/10/10 00:35:24;;;;;;;0.28;0.28;;;;;;;11.89;54.45;100991.25;5192576;28;20037;-79
2022/10/10 00:37:55;;;;;;;0.40;0.40;;;;;;;11.83;54.95;100983.53;5195886;28;20033;-79
2022/10/10 00:40:29;;;;;;;0.30;0.30;;;;;;;11.82;54.63;100992.34;5171330;28;20121;-78
2022/10/10 00:42:59;;;;;;;0.43;0.43;;;;;;;11.76;54.86;100984.63;5137940;28;20069;-78
2022/10/10 00:45:33;;;;;;;0.40;0.40;;;;;;;11.73;54.88;100985.56;5178044;28;20025;-78
2022/10/10 00:48:09;;;;;;;0.55;0.55;;;;;;;11.70;55.17;100990.91;5172379;28;20054;-79
2022/10/10 00:50:49;;;;;;;0.45;0.45;;;;;;;11.64;55.21;100976.16;5189510;28;20026;-78
2022/10/10 00:53:24;;;;;;;0.30;0.30;;;;;;;11.64;55.43;100984.03;5192880;28;20037;-79
2022/10/10 00:55:56;;;;;;;0.30;0.30;;;;;;;11.58;55.00;100976.34;5175364;28;20667;-80
2022/10/10 00:58:26;;;;;;;0.70;0.68;;;;;;;11.55;55.17;100970.31;5172859;28;20053;-79
2022/10/10 01:00:57;;;;;;;0.60;0.60;;;;;;;11.49;55.17;100968.69;5174472;28;20017;-79
2022/10/10 01:03:27;;;;;;;0.88;0.88;;;;;;;11.50;55.54;100967.78;5177079;28;20057;-79
2022/10/10 01:06:01;;;;;;;0.80;0.80;;;;;;;11.50;55.34;100968.66;5165147;28;20052;-78
2022/10/10 01:08:32;;;;;;;0.30;0.30;;;;;;;11.40;55.69;100966.31;5151048;28;20059;-78
2022/10/10 01:11:11;;;;;;;1.05;0.95;;;;;;;11.42;55.73;100961.88;5197392;28;20033;-79
2022/10/10 01:13:54;;;;;;;1.65;1.15;;;;;;;11.30;55.65;100955.19;5183443;28;20041;-79
2022/10/10 01:16:56;;;;;;;0.55;0.55;;;;;;;11.26;55.63;100959.66;5153559;28;20057;-78
2022/10/10 01:19:41;;;;;;;0.50;0.50;;;;;;;11.16;55.66;100952.94;5151416;28;20030;-79
2022/10/10 01:22:24;;;;;;;0.32;0.32;;;;;;;11.03;56.88;100955.84;5192069;28;20038;-78
2022/10/10 01:24:57;;;;;;;0.40;0.40;;;;;;;11.10;55.59;100953.09;5171973;28;20060;-78
2022/10/10 01:27:50;;;;;;;;;;;;;;;11.10;55.67;100953.09;5212817;28;20533;-79
2022/10/10 01:30:23;;;;;;;0.30;0.30;;;;;;;11.02;56.11;100942.75;5172734;28;19916;-79
2022/10/10 01:33:02;;;;;;;0.63;0.63;;;;;;;10.98;56.56;100947.25;5223951;28;20124;-79
2022/10/10 01:35:39;;;;;;;0.60;0.60;;;;;;;11.01;55.72;100952.41;5206059;28;20021;-79
2022/10/10 01:38:26;;;;;;;0.70;0.70;;;;;;;11.02;56.30;100941.03;5194503;28;20047;-80
2022/10/10 01:41:18;;;;;;;0.57;0.57;;;;;;;10.96;55.80;100935.91;5195879;28;20044;-79
2022/10/10 01:43:54;;;;;;;0.40;0.40;;;;;;;10.94;56.47;100927.22;5196259;28;20069;-79
2022/10/10 01:46:25;;;;;;;0.77;0.77;;;;;;;10.96;56.00;100929.81;5158611;28;20038;-80
2022/10/10 01:48:57;;;;;;;1.15;1.05;;;;;;;10.91;56.09;100932.53;5191205;28;20053;-79
2022/10/10 01:51:53;;;;;;;0.40;0.40;;;;;;;10.90;56.32;100932.59;5197782;28;20582;-79
2022/10/10 01:54:30;;;;;;;0.52;0.52;;;;;;;10.91;56.06;100932.53;5196902;28;20070;-79
2022/10/10 01:57:48;;;;;;;1.25;1.15;;;;;;;10.81;56.44;100924.03;5217535;28;20037;-79
2022/10/10 02:00:19;;;;;;;1.05;1.05;;;;;;;10.79;56.12;100923.22;5196027;28;20068;-80
2022/10/10 02:02:58;;;;;;;0.68;0.68;;;;;;;10.85;56.42;100924.84;5194731;28;20029;-78
2022/10/10 02:05:36;;;;;;;0.88;0.88;;;;;;;10.71;56.14;100918.13;5165522;28;20029;-79
2022/10/10 02:08:27;;;;;;;0.73;0.73;;;;;;;10.79;56.15;100917.09;5172051;28;20141;-79
2022/10/10 02:11:00;;;;;;;0.30;0.30;;;;;;;10.63;56.49;100912.22;5179807;28;20122;-79
2022/10/10 02:13:43;;;;;;;0.80;0.70;;;;;;;10.66;56.28;100916.56;5193903;28;20034;-80
2022/10/10 02:16:42;;;;;;;0.60;0.60;;;;;;;10.64;56.57;100907.84;5193987;28;20600;-79
2022/10/10 02:19:17;;;;;;;1.15;1.15;;;;;;;10.65;56.75;100915.66;5190054;28;20045;-78
2022/10/10 02:21:53;;;;;;;0.82;0.82;;;;;;;10.61;56.58;100908.78;5196178;28;20026;-78
2022/10/10 02:24:25;;;;;;;0.75;0.65;;;;;;;10.60;57.07;100916.69;5177811;28;20045;-78
2022/10/10 02:27:02;;;;;;;1.55;1.42;;;;;;;10.57;56.56;100912.38;5195177;28;20505;-78
2022/10/10 02:29:37;;;;;;;0.93;0.93;;;;;;;10.55;56.71;100909.78;5174259;28;20613;-78
2022/10/10 02:32:16;;;;;;;0.40;0.40;;;;;;;10.55;57.33;100906.28;5187452;28;20073;-80
2022/10/10 02:35:03;;;;;;;0.40;0.40;;;;;;;10.49;56.55;100907.31;5172452;28;20044;-79
2022/10/10 02:37:38;;;;;;;0.40;0.40;;;;;;;10.45;56.68;100894.31;5193063;28;20025;-80
2022/10/10 02:40:15;;;;;;;0.43;0.43;;;;;;;10.45;56.55;100899.56;5178353;28;20054;-79
2022/10/10 02:42:57;;;;;;;2.28;1.80;;;;;;;10.43;57.12;100893.47;5176979;28;20117;-79
2022/10/10 02:45:29;;;;;;;0.60;0.60;;;;;;;10.39;56.79;100896.16;5198749;28;20030;-80
2022/10/10 02:48:03;;;;;;;1.45;1.05;;;;;;;10.36;57.34;100890.09;5157282;28;20040;-79
2022/10/10 02:50:34;;;;;;;0.40;0.40;;;;;;;10.30;56.98;100883.22;5163250;28;20042;-79
2022/10/10 02:53:04;;;;;;;0.60;0.60;;;;;;;10.32;57.10;100883.22;5165846;28;20071;-80
2022/10/10 02:55:35;;;;;;;0.47;0.47;;;;;;;10.26;56.94;100884.22;5179494;28;20026;-79
2022/10/10 02:58:05;;;;;;;2.97;2.10;;;;;;;10.29;56.85;100891.16;5185311;28;20129;-79
2022/10/10 03:00:37;;;;;;;2.05;1.05;;;;;;;10.29;56.80;100885.91;5194073;28;20123;-79
2022/10/10 03:03:08;;;;;;;0.57;0.57;;;;;;;10.28;57.22;100873.69;5165271;28;20121;-78
2022/10/10 03:05:40;;;;;;;0.85;0.85;;;;;;;10.22;56.77;100879.91;5199851;28;20605;-78
2022/10/10 03:08:12;;;;;;;;;;;;;;;10.21;56.98;100879.06;5183787;28;20037;-80
2022/10/10 03:10:57;;;;;;;0.40;0.40;;;;;;;10.18;57.17;100884.38;5190368;28;19920;-80
2022/10/10 03:13:28;;;;;;;0.70;0.70;;;;;;;10.18;57.11;100883.53;5177189;28;20069;-79
2022/10/10 03:15:58;;;;;;;0.43;0.43;;;;;;;10.15;57.36;100876.59;5176058;28;20038;-78
2022/10/10 03:18:29;;;;;;;0.85;0.82;;;;;;;10.14;57.29;100881.84;5164241;28;20124;-79
2022/10/10 03:21:00;;;;;;;0.30;0.30;;;;;;;10.11;57.45;100881.94;5159536;28;20322;-79
2022/10/10 03:23:31;;;;;;;1.48;1.38;;;;;;;10.06;57.06;100888.13;5197530;28;20045;-80
2022/10/10 03:26:03;;;;;;;0.30;0.30;;;;;;;10.08;56.90;100881.13;5165907;28;20033;-79
2022/10/10 03:28:35;;;;;;;1.05;1.05;;;;;;;10.06;57.08;100885.53;5164516;28;20033;-79
2022/10/10 03:31:06;;;;;;;0.57;0.57;;;;;;;10.06;57.27;100882.91;5200285;28;20074;-79
2022/10/10 03:33:36;;;;;;;0.30;0.30;;;;;;;10.02;57.66;100876.00;5183462;28;20721;-79
2022/10/10 03:36:09;;;;;;;1.38;1.30;;;;;;;9.93;57.77;100877.06;5185115;28;20087;-79
2022/10/10 03:38:40;;;;;;;0.40;0.40;;;;;;;9.98;57.53;100876.13;5157398;28;20045;-80
2022/10/10 03:41:10;;;;;;;0.57;0.57;;;;;;;9.96;57.29;100870.88;5186760;28;20046;-78
2022/10/10 03:43:41;;;;;;;0.73;0.73;;;;;;;9.93;57.52;100873.59;5204920;28;20052;-78
2022/10/10 03:46:11;;;;;;;0.55;0.55;;;;;;;9.93;57.51;100866.56;5216842;28;20036;-78
2022/10/10 03:48:42;;;;;;;1.05;1.00;;;;;;;9.96;57.59;100873.50;5182286;28;20037;-79
2022/10/10 03:51:13;;;;;;;0.50;0.50;;;;;;;9.93;57.44;100868.34;5175533;28;20026;-80
2022/10/10 03:53:44;;;;;;;1.10;0.77;;;;;;;9.84;58.20;100873.78;5157699;28;20052;-80
2022/10/10 03:56:16;;;;;;;1.40;1.10;;;;;;;9.83;58.12;100874.69;5169738;28;20514;-80
2022/10/10 03:58:47;;;;;;;0.70;0.70;;;;;;;9.81;58.23;100864.25;5154094;28;20520;-80
2022/10/10 04:01:17;;;;;;;0.73;0.73;;;;;;;9.86;58.00;100858.91;5199965;28;20073;-79
2022/10/10 04:03:50;;;;;;;0.47;0.47;;;;;;;9.87;57.48;100852.75;5183929;28;20064;-79
2022/10/10 04:06:21;;;;;;;0.77;0.77;;;;;;;9.83;57.91;100869.44;5201290;28;20069;-80
2022/10/10 04:08:52;;;;;;;0.73;0.73;;;;;;;9.80;57.77;100862.50;5164184;28;20029;-79
2022/10/10 04:11:24;;;;;;;0.30;0.30;;;;;;;9.83;57.87;100869.44;5167904;28;20041;-80
2022/10/10 04:13:57;;;;;;;0.40;0.40;;;;;;;9.77;57.96;100865.19;5198711;28;20036;-78
2022/10/10 04:16:29;;;;;;;0.50;0.50;;;;;;;9.74;58.00;100870.50;5200115;28;20440;-79
2022/10/10 04:18:59;;;;;;;0.60;0.60;;;;;;;9.75;58.03;100865.22;5197950;28;20077;-78
2022/10/10 04:21:33;;;;;;;0.70;0.70;;;;;;;9.76;57.94;100866.97;5166709;28;20050;-79
2022/10/10 04:24:10;;;;;;;0.50;0.50;;;;;;;9.72;57.71;100865.28;5143915;28;20041;-78
2022/10/10 04:26:40;;;;;;;0.88;0.88;;;;;;;9.71;58.54;100874.03;5141462;28;20022;-79
2022/10/10 04:29:13;;;;;;;4.70;1.42;;;;;;;9.64;58.61;100864.59;5149318;28;20041;-79
2022/10/10 04:31:44;;;;;;;0.45;0.45;;;;;;;9.60;58.73;100868.19;5163004;28;20571;-79
2022/10/10 04:34:15;;;;;;;0.60;0.60;;;;;;;9.66;58.30;100861.94;5147447;28;20046;-80
2022/10/10 04:36:45;;;;;;;0.60;0.60;;;;;;;9.63;58.26;100862.00;5157970;28;20114;-78
2022/10/10 04:39:16;;;;;;;0.38;0.38;;;;;;;9.63;58.71;100865.47;5174141;28;20045;-79
2022/10/10 04:41:48;;;;;;;0.80;0.80;;;;;;;9.64;58.26;100858.50;5186580;28;21021;-78
2022/10/10 04:44:20;;;;;;;0.40;0.40;;;;;;;9.61;58.22;100855.03;5160085;28;20406;-80
2022/10/10 04:46:51;;;;;;;0.30;0.30;;;;;;;9.58;58.78;100860.34;5172343;28;20025;-79
2022/10/10 04:49:22;;;;;;;0.95;0.95;;;;;;;9.58;58.88;100857.75;5167755;28;20050;-79
2022/10/10 04:51:55;;;;;;;0.45;0.45;;;;;;;9.61;58.39;100856.81;5175874;28;20029;-79
2022/10/10 04:54:37;;;;;;;2.92;1.35;;;;;;;9.55;58.69;100863.03;5164749;28;20122;-80
2022/10/10 04:57:08;;;;;;;0.47;0.47;;;;;;;9.54;58.64;100860.44;5160723;28;20038;-79
2022/10/10 04:59:45;;;;;;;0.60;0.60;;;;;;;9.52;58.73;100857.00;5159616;28;20045;-79
2022/10/10 05:02:16;;;;;;;1.58;1.20;;;;;;;9.48;58.84;100865.78;5193515;28;20041;-80
2022/10/10 05:04:49;;;;;;;1.02;1.02;;;;;;;9.49;58.63;100862.28;5161746;28;20674;-80
2022/10/10 05:07:20;;;;;;;1.02;0.93;;;;;;;9.49;58.69;100863.16;5166929;28;20163;-79
2022/10/10 05:09:54;;;;;;;0.40;0.40;;;;;;;9.51;58.69;100861.34;5189911;28;20105;-80
2022/10/10 05:12:25;;;;;;;1.20;1.00;;;;;;;9.51;58.68;100855.25;5194781;28;20068;-82
2022/10/10 05:14:58;;;;;;;0.52;0.52;;;;;;;9.52;58.47;100857.00;5192591;28;20738;-79
2022/10/10 05:17:38;;;;;;;0.88;0.88;;;;;;;9.45;58.70;100862.38;5195584;28;20018;-80
2022/10/10 05:20:09;;;;;;;0.73;0.73;;;;;;;9.42;58.87;100862.41;5189844;28;20099;-80
2022/10/10 05:22:40;;;;;;;0.55;0.55;;;;;;;9.36;59.50;100867.78;5158450;28;20036;-79
2022/10/10 05:25:10;;;;;;;2.35;1.52;;;;;;;9.35;59.56;100863.44;5165188;28;20034;-80
2022/10/10 05:27:41;;;;;;;0.30;0.30;;;;;;;9.33;59.30;100861.75;5175874;28;20033;-80
2022/10/10 05:30:12;;;;;;;0.55;0.55;;;;;;;9.40;59.71;100860.72;5163640;28;20068;-79
2022/10/10 05:32:44;;;;;;;3.70;1.10;;;;;;;9.40;58.69;100863.34;5197615;28;20025;-79
2022/10/10 05:35:15;;;;;;;0.98;0.98;;;;;;;9.39;59.13;100866.84;5194614;28;20040;-80
2022/10/10 05:37:47;;;;;;;0.63;0.63;;;;;;;9.39;59.09;100870.31;5181797;28;20040;-79
2022/10/10 05:40:17;;;;;;;0.82;0.82;;;;;;;9.31;59.45;100872.22;5159803;28;20034;-79
2022/10/10 05:42:48;;;;;;;0.82;0.82;;;;;;;9.35;58.95;100866.06;5172948;28;20052;-79
2022/10/10 05:45:18;;;;;;;0.52;0.52;;;;;;;9.36;59.00;100859.03;5198058;28;20055;-79
2022/10/10 05:48:04;;;;;;;0.50;0.50;;;;;;;9.36;59.23;100866.91;5186093;28;20034;-79
2022/10/10 05:50:40;;;;;;;1.40;1.10;;;;;;;9.27;59.34;100865.34;5180369;28;20435;-79
2022/10/10 05:53:10;;;;;;;1.25;1.15;;;;;;;9.28;59.29;100865.28;5193226;28;20128;-79
2022/10/10 05:55:43;;;;;;;0.38;0.38;;;;;;;9.29;59.61;100866.19;5199212;28;20279;-79
2022/10/10 05:58:14;;;;;;;2.75;2.25;;;;;;;9.28;59.26;100864.44;5205301;28;20143;-79
2022/10/10 06:00:48;;;;;;;1.08;0.98;;;;;;;9.20;59.74;100868.97;5196140;28;20097;-79
2022/10/10 06:03:18;;;;;;;2.80;1.55;;;;;;;9.28;59.31;100873.16;5173366;28;20760;-79
2022/10/10 06:05:51;;;;;;;23.48;1.95;;;;;;;9.20;59.69;100869.81;5180576;28;20109;-79
2022/10/10 06:08:21;;;;;;;0.53;0.53;;;;;;;9.21;59.67;100866.31;5173454;28;20058;-79
2022/10/10 06:10:52;;;;;;;0.70;0.70;;;;;;;9.20;59.89;100874.22;5195981;28;20033;-80
2022/10/10 06:13:22;;;;;;;1.23;1.08;;;;;;;9.25;59.90;100869.72;5159268;28;20045;-80
2022/10/10 06:15:53;;;;;;;0.43;0.43;;;;;;;9.22;59.64;100870.66;5183300;28;20402;-79
2022/10/10 06:18:24;;;;;;;0.50;0.50;;;;;;;9.19;60.00;100872.47;5175097;28;20533;-79
2022/10/10 06:20:59;;;;;;;0.82;0.80;;;;;;;9.21;60.01;100874.16;5175719;28;20074;-79
2022/10/10 06:23:31;;;;;;;1.52;1.42;;;;;;;9.19;59.71;100880.34;5150449;28;20441;-80
2022/10/10 06:26:04;;;;;;;0.38;0.38;;;;;;;9.19;59.85;100881.19;5181236;28;20032;-79
2022/10/10 06:28:35;;;;;;;;;;;;;;;9.22;60.02;100880.25;5186744;28;20045;-80
2022/10/10 06:31:15;;;;;;;0.40;0.40;;;;;;;9.22;59.62;100875.91;5165419;28;19913;-79
2022/10/10 06:33:48;;;;;;;0.30;0.30;;;;;;;9.21;60.58;100878.56;5168234;28;20038;-79
2022/10/10 06:36:19;;;;;;;;;;;;;;;9.23;60.11;100879.38;5174458;28;20069;-79
2022/10/10 06:38:49;;;;;;;0.88;0.88;;;;;;;9.20;60.87;100882.06;5172898;28;20000;-79
2022/10/10 06:41:19;;;;;;;1.08;1.08;;;;;;;9.23;60.54;100885.47;5178202;28;20069;-79
2022/10/10 06:43:50;;;;;;;0.55;0.55;;;;;;;9.21;60.58;100887.25;5158076;28;20042;-79
2022/10/10 06:46:21;;;;;;;0.80;0.80;;;;;;;9.19;61.79;100893.41;5157083;28;20133;-79
2022/10/10 06:48:51;;;;;;;0.55;0.55;;;;;;;9.17;61.94;100888.22;5181324;28;20192;-79
2022/10/10 06:51:23;;;;;;;0.40;0.40;;;;;;;9.19;61.74;100890.81;5193070;28;20026;-79
2022/10/10 06:53:58;;;;;;;4.95;0.82;;;;;;;9.21;63.27;100896.88;5190375;28;20137;-78
2022/10/10 06:56:29;;;;;;;0.57;0.57;;;;;;;9.25;62.21;100893.28;5162336;28;20072;-79
2022/10/10 06:58:59;;;;;;;0.50;0.50;;;;;;;9.29;62.02;100897.59;5192441;28;20080;-79
2022/10/10 07:01:33;;;;;;;0.40;0.40;;;;;;;9.34;62.51;100892.28;5178280;28;20045;-79
2022/10/10 07:04:12;;;;;;;0.40;0.40;;;;;;;9.39;61.63;100888.66;5169740;28;20116;-79
2022/10/10 07:06:42;;;;;;;4.55;1.15;;;;;;;9.40;63.01;100900.84;5173516;28;20029;-79
2022/10/10 07:09:13;;;;;;;0.38;0.38;;;;;;;9.42;63.62;100891.22;5181361;28;20063;-79
2022/10/10 07:11:45;;;;;;;0.35;0.35;;;;;;;9.48;64.25;100899.84;5173656;28;20765;-79
2022/10/10 07:14:15;;;;;;;0.32;0.32;;;;;;;9.55;62.63;100901.44;5170949;28;20049;-79
2022/10/10 07:16:55;;;;;;;0.68;0.68;;;;;;;9.61;64.02;100896.09;5172695;28;20442;-79
2022/10/10 07:19:26;;;;;;;3.83;2.05;;;;;;;9.64;63.48;100892.56;5145524;28;20042;-79
2022/10/10 07:21:59;;;;;;;0.45;0.45;;;;;;;9.68;64.69;100899.44;5162083;28;20038;-78
2022/10/10 07:24:30;;;;;;;6.72;1.67;;;;;;;9.77;63.88;100894.00;5177123;28;20037;-78
2022/10/10 07:27:00;;;;;;;0.73;0.73;;;;;;;9.79;66.44;100894.84;5201826;28;20030;-79
2022/10/10 07:29:31;;;;;;;0.57;0.57;;;;;;;9.84;64.30;100898.22;5160927;28;20034;-79
2022/10/10 07:32:09;;;;;;;2.63;1.00;;;;;;;9.90;63.70;100899.84;5154674;28;20068;-79
2022/10/10 07:34:40;;;;;;;0.30;0.30;;;;;;;9.92;65.20;100903.31;5171458;28;20033;-79
2022/10/10 07:37:13;;;;;;;0.30;0.30;;;;;;;9.98;64.05;100897.94;5190406;28;20081;-80
2022/10/10 07:39:44;;;;;;;;;;;;;;;10.06;63.71;100903.03;5189412;28;20120;-79
2022/10/10 07:42:14;;;;;;;0.60;0.60;;;;;;;10.04;65.62;100900.41;5161434;28;20028;-79
2022/10/10 07:44:44;;;;;;;1.75;1.38;;;;;;;10.15;63.44;100900.19;5179021;28;20042;-79
2022/10/10 07:47:15;;;;;;;0.30;0.30;;;;;;;10.15;64.45;100899.31;5157675;28;20049;-79
2022/10/10 07:49:49;;;;;;;0.20;0.20;;;;;;;10.20;66.48;100900.09;5181897;28;20041;-79
2022/10/10 07:52:19;;;;;;;0.45;0.45;;;;;;;10.27;64.31;100903.41;5168231;28;20036;-78
2022/10/10 07:54:50;;;;;;;0.30;0.30;;;;;;;10.28;64.33;100894.66;5158093;28;20037;-78
2022/10/10 07:57:20;;;;;;;0.30;0.30;;;;;;;10.33;65.33;100898.06;5180171;28;20040;-79
2022/10/10 07:59:51;;;;;;;13.52;1.33;;;;;;;10.32;64.84;100902.41;5189528;28;20054;-79
2022/10/10 08:02:21;;;;;;;0.65;0.65;;;;;;;10.29;66.63;100905.09;5195913;28;20039;-79
2022/10/10 08:04:52;;;;;;;3.40;1.25;;;;;;;10.35;66.80;100907.63;5195859;28;20045;-79
2022/10/10 08:07:22;;;;;;;0.65;0.65;;;;;;;10.37;65.52;100910.22;5199347;28;20823;-79
2022/10/10 08:09:52;;;;;;;0.82;0.82;;;;;;;10.38;66.59;100906.69;5183941;28;20034;-79
2022/10/10 08:12:23;;;;;;;0.80;0.80;;;;;;;10.43;65.53;100904.81;5181886;28;20038;-79
2022/10/10 08:14:53;;;;;;;0.57;0.57;;;;;;;10.49;65.46;100903.81;5177268;28;20037;-79
2022/10/10 08:17:26;;;;;;;0.40;0.40;;;;;;;10.48;66.28;100913.47;5180470;28;20032;-79
2022/10/10 08:19:57;;;;;;;0.32;0.32;;;;;;;10.54;68.04;100912.44;5179732;28;20034;-80
2022/10/10 08:22:27;;;;;;;0.50;0.50;;;;;;;10.55;68.76;100916.78;5169273;28;20075;-80
2022/10/10 08:24:58;;;;;;;0.40;0.40;;;;;;;10.60;70.26;100920.19;5180822;28;20060;-79
2022/10/10 08:27:29;;;;;;;1.33;0.77;;;;;;;10.61;70.69;100919.28;5178362;28;20558;-79
2022/10/10 08:30:00;;;;;;;0.30;0.30;;;;;;;10.66;70.04;100929.66;5201690;22;20037;-82
2022/10/10 08:32:30;;;;;;;0.40;0.40;;;;;;;10.75;70.07;100925.94;5186688;28;20468;-82
2022/10/10 08:35:01;;;;;;;0.70;0.70;;;;;;;10.78;69.86;100924.09;5173113;28;20160;-82
2022/10/10 08:37:32;;;;;;;0.63;0.63;;;;;;;10.88;72.21;100929.97;5173111;28;20037;-82
2022/10/10 08:40:02;;;;;;;0.50;0.50;;;;;;;10.92;72.10;100922.88;5166016;28;20480;-82
2022/10/10 08:42:41;;;;;;;0.30;0.30;;;;;;;10.92;71.76;100922.88;5166044;28;20030;-82
2022/10/10 08:45:15;;;;;;;0.63;0.63;;;;;;;11.11;73.63;100933.81;5172124;28;20269;-82
2022/10/10 08:48:06;;;;;;;0.40;0.40;;;;;;;11.09;74.35;100927.72;5179092;28;20022;-82
2022/10/10 08:50:41;;;;;;;0.40;0.40;;;;;;;11.17;72.48;100926.63;5189803;28;20518;-82
2022/10/10 08:53:17;;;;;;;0.52;0.52;;;;;;;11.33;71.16;100929.72;5181904;28;20046;-82
2022/10/10 08:55:49;;;;;;;0.32;0.32;;;;;;;11.30;72.88;100921.91;5194973;28;22786;-83
2022/10/10 08:58:32;;;;;;;0.43;0.43;;;;;;;11.36;74.20;100926.13;5191279;28;20053;-83
2022/10/10 09:01:18;;;;;;;0.87;0.87;;;;;;;11.46;71.66;100930.25;5194516;28;20079;-83
2022/10/10 09:03:51;;;;;;;0.50;0.50;;;;;;;11.47;74.12;100931.09;5203480;28;20048;-82
2022/10/10 09:06:45;;;;;;;1.63;1.23;;;;;;;11.61;72.80;100930.72;5176028;28;20121;-82
2022/10/10 09:09:49;;;;;;;0.60;0.60;;;;;;;11.65;72.65;100932.34;5184726;28;20073;-81
2022/10/10 09:12:37;;;;;;;1.55;0.63;;;;;;;11.76;74.33;100932.91;5208694;28;20041;-81
2022/10/10 09:15:18;;;;;;;0.40;0.40;;;;;;;11.85;73.23;100929.16;5198668;28;20025;-82
2022/10/10 09:18:32;;;;;;;0.85;0.82;;;;;;;12.00;72.61;100929.63;5191201;28;20041;-84
2022/10/10 09:21:15;;;;;;;0.30;0.30;;;;;;;12.05;72.53;100932.97;5183977;28;20026;-84
2022/10/10 09:23:57;;;;;;;2.05;1.45;;;;;;;12.08;72.11;100932.91;5188815;28;20093;-84
2022/10/10 09:26:35;;;;;;;0.25;0.25;;;;;;;12.21;73.22;100943.91;5192583;28;20029;-83
2022/10/10 09:29:15;;;;;;;0.43;0.43;;;;;;;12.27;72.81;100938.47;5167309;28;20392;-84
2022/10/10 09:31:52;;;;;;;1.13;0.95;;;;;;;12.50;72.73;100940.38;5175894;28;20029;-83
2022/10/10 09:34:37;;;;;;;0.60;0.60;;;;;;;12.49;72.52;100945.69;5175285;28;20310;-86
2022/10/10 09:37:19;;;;;;;0.30;0.30;;;;;;;12.60;72.36;100940.94;5175351;28;20037;-84
2022/10/10 09:39:59;;;;;;;1.20;1.13;;;;;;;12.61;72.29;100945.31;5193474;28;20052;-84
2022/10/10 09:42:34;;;;;;;1.50;1.17;;;;;;;12.73;72.41;100936.16;5211094;28;20386;-84
2022/10/10 09:45:16;;;;;;;0.30;0.30;;;;;;;12.78;71.40;100939.47;5206481;28;20409;-83
2022/10/10 09:47:52;;;;;;;0.52;0.52;;;;;;;12.82;71.66;100941.13;5179963;28;20030;-84
2022/10/10 09:50:26;;;;;;;0.50;0.50;;;;;;;12.89;71.07;100942.63;5200592;28;20040;-84
2022/10/10 09:52:57;;;;;;;27.05;2.95;;;;;;;12.97;71.84;100938.88;5174563;28;20022;-83
2022/10/10 09:55:33;;;;;;;0.40;0.40;;;;;;;12.98;72.43;100944.06;5199779;28;20033;-84
2022/10/10 09:58:44;;;;;;;2.00;1.55;;;;;;;13.18;71.50;100946.03;5185135;28;20057;-83
2022/10/10 10:01:31;;;;;;;0.32;0.32;;;;;;;13.15;70.94;100942.66;5139075;28;20114;-83
2022/10/10 10:04:18;;;;;;;0.70;0.70;;;;;;;13.32;71.48;100945.56;5189961;28;20037;-83
2022/10/10 10:06:50;;;;;;;2.45;1.75;;;;;;;13.34;71.33;100942.91;5182416;28;20025;-84
2022/10/10 10:09:22;;;;;;;0.28;0.28;;;;;;;13.35;70.82;100944.59;5172587;28;20041;-85
2022/10/10 10:11:55;;;;;;;1.58;1.48;;;;;;;13.48;71.07;100934.50;5185689;28;20087;-83
2022/10/10 10:14:29;;;;;;;0.30;0.30;;;;;;;13.48;70.73;100945.94;5200460;28;20078;-85
2022/10/10 10:17:17;;;;;;;3.83;0.95;;;;;;;13.59;70.56;100944.69;5202446;28;20037;-83
2022/10/10 10:19:48;;;;;;;0.30;0.30;;;;;;;13.70;70.72;100939.88;5178624;28;20081;-84
2022/10/10 10:22:36;;;;;;;0.47;0.47;;;;;;;13.85;69.37;100946.34;5180136;28;20116;-83
2022/10/10 10:25:36;;;;;;;0.30;0.30;;;;;;;13.85;70.28;100955.13;5190881;28;20042;-82
2022/10/10 10:28:09;;;;;;;0.40;0.40;;;;;;;13.91;70.00;100943.47;5189783;28;20056;-84
2022/10/10 10:30:42;;;;;;;0.45;0.45;;;;;;;14.09;69.42;100946.34;5177325;28;20337;-84
2022/10/10 10:33:38;;;;;;;0.30;0.30;;;;;;;14.05;69.66;100950.03;5174971;28;20038;-83
2022/10/10 10:36:38;;;;;;;0.57;0.57;;;;;;;14.06;69.90;100952.59;5195038;28;20040;-83
2022/10/10 10:39:33;;;;;;;1.65;0.88;;;;;;;14.17;69.79;100942.47;5167872;28;20057;-83
2022/10/10 10:42:21;;;;;;;2.30;1.85;;;;;;;14.38;69.07;100941.72;5184699;28;20033;-83
2022/10/10 10:45:13;;;;;;;0.90;0.68;;;;;;;14.50;68.39;100941.22;5206038;28;20078;-82
2022/10/10 10:48:15;;;;;;;1.70;1.08;;;;;;;14.58;68.40;100943.56;5194044;28;20022;-83
2022/10/10 10:50:52;;;;;;;0.50;0.50;;;;;;;14.76;67.57;100952.56;5174450;28;20038;-82
2022/10/10 10:54:02;;;;;;;0.77;0.77;;;;;;;14.92;67.22;100950.13;5180846;28;20049;-83
2022/10/10 10:56:40;;;;;;;0.50;0.50;;;;;;;15.03;66.47;100957.63;5150293;28;20450;-82
2022/10/10 10:59:35;;;;;;;8.25;1.23;;;;;;;15.26;65.86;100959.28;5160202;28;20046;-82
2022/10/10 11:02:05;;;;;;;22.83;2.67;;;;;;;15.26;65.88;100962.78;5155492;28;20054;-82
2022/10/10 11:05:03;;;;;;;0.70;0.70;;;;;;;15.41;66.61;100961.25;5159341;28;20477;-83
2022/10/10 11:08:01;;;;;;;0.65;0.65;;;;;;;15.49;65.32;100965.38;5160747;28;20030;-82
2022/10/10 11:10:39;;;;;;;1.35;0.80;;;;;;;15.68;64.91;100960.97;5183869;28;20056;-83
2022/10/10 11:13:34;;;;;;;2.92;1.63;;;;;;;15.66;65.27;100960.16;5162609;28;20052;-83
2022/10/10 11:16:18;;;;;;;0.25;0.25;;;;;;;16.01;63.52;100960.38;5178146;28;20032;-83
2022/10/10 11:19:07;;;;;;;8.25;1.23;;;;;;;16.29;62.82;100963.53;5194465;28;20045;-83
2022/10/10 11:21:45;;;;;;;2.72;0.82;;;;;;;16.18;63.34;100953.44;5184441;28;20029;-83
2022/10/10 11:24:29;;;;;;;0.90;0.52;;;;;;;16.29;62.75;100956.47;5202572;28;20049;-83
2022/10/10 11:27:06;;;;;;;0.43;0.43;;;;;;;16.38;62.35;100952.50;5175902;28;20032;-83
2022/10/10 11:30:09;;;;;;;1.10;1.02;;;;;;;16.44;61.46;100946.06;5193395;28;20033;-82
2022/10/10 11:32:44;;;;;;;0.55;0.55;;;;;;;16.44;61.87;100946.06;5159473;28;20043;-83
2022/10/10 11:35:20;;;;;;;0.30;0.30;;;;;;;16.64;62.22;100951.28;5167832;28;20391;-83
2022/10/10 11:38:00;;;;;;;0.52;0.52;;;;;;;16.64;60.94;100951.28;5161938;28;20072;-83
2022/10/10 11:40:55;;;;;;;1.67;1.10;;;;;;;16.68;60.24;100950.16;5185635;28;20455;-82
2022/10/10 11:43:28;;;;;;;6.82;2.70;;;;;;;16.77;59.79;100945.34;5175349;28;20029;-82
2022/10/10 11:46:10;;;;;;;0.22;0.22;;;;;;;16.76;60.22;100946.28;5183081;28;20029;-82
2022/10/10 11:48:46;;;;;;;0.22;0.22;;;;;;;16.73;60.37;100941.16;5203001;28;20508;-83
2022/10/10 11:51:29;;;;;;;0.70;0.60;;;;;;;16.75;60.63;100945.44;5194136;28;20029;-83
2022/10/10 11:54:07;;;;;;;6.82;1.65;;;;;;;16.77;60.75;100946.22;5175011;28;20411;-82
2022/10/10 11:56:43;;;;;;;0.28;0.28;;;;;;;16.88;60.62;100948.34;5201564;28;20030;-83
2022/10/10 11:59:40;;;;;;;1.17;1.17;;;;;;;16.88;61.29;100951.00;5182162;28;20080;-82
2022/10/10 12:02:21;;;;;;;0.77;0.77;;;;;;;17.07;60.86;100942.13;5180872;28;20060;-82
2022/10/10 12:04:51;;;;;;;0.30;0.30;;;;;;;17.01;60.49;100945.09;5189304;28;20041;-82
2022/10/10 12:07:31;;;;;;;0.30;0.30;;;;;;;17.03;60.66;100952.03;5198347;28;20082;-82
2022/10/10 12:10:10;;;;;;;2.65;0.95;;;;;;;17.07;60.20;100956.25;5199494;28;20041;-83